Shinkomaru No.18 — JD3625 — position and weather

sailwx.info

Track history (hours):
 
Tides and Currents Weather Stations Pressure Air Temp Water Temp Dewpoint Dewpoint Depression Visibility Wind Speed Wind Dir Waves Ship Positions

Shinkomaru No.18

Last reported at 2017-Oct-19 02:00 UTC. Time now 2017-Oct-19 02:13 UTC.
Position N 34°60' E 139°49'.

Length 82 m; draft 4.6 m.

Type: Cargo ship. MMSI: 431005083.

Date/timePositionNaut miles runAvg speedWind from/ knotsBaromVisibWave heightAir tempDewpointWater temp
2017-Oct-19 02:00N 34°60' E 139°49'0 0.1
2017-Oct-19 01:30N 34°60' E 139°49'0 0.0
2017-Oct-19 01:00N 34°60' E 139°49'0 0.1
2017-Oct-19 00:30N 34°60' E 139°49'0 0.1
2017-Oct-19 00:00N 34°60' E 139°49'0 0.0
2017-Oct-18 23:30N 34°60' E 139°49'0 0.0
2017-Oct-18 23:00N 34°60' E 139°49'0 0.0
2017-Oct-18 22:30N 34°60' E 139°49'0 0.0
2017-Oct-18 22:00N 34°60' E 139°49'0 0.0
2017-Oct-18 21:30N 34°60' E 139°49'0 0.0
2017-Oct-18 21:00N 34°60' E 139°49'0 0.0
2017-Oct-18 20:30N 34°60' E 139°49'0 0.0
2017-Oct-18 20:00N 34°60' E 139°49'0 0.0
2017-Oct-18 19:30N 34°60' E 139°49'0 0.1
2017-Oct-18 19:00N 34°60' E 139°49'0 0.1
2017-Oct-18 18:30N 34°60' E 139°49'0 0.0
2017-Oct-18 17:59N 34°60' E 139°49'0 0.1
2017-Oct-18 17:30N 34°60' E 139°49'0 0.0
2017-Oct-18 17:00N 34°60' E 139°49'0 0.0
2017-Oct-18 16:30N 34°60' E 139°49'0 0.0
2017-Oct-18 16:00N 34°60' E 139°49'0 0.0
2017-Oct-18 15:30N 34°60' E 139°49'0 0.0
2017-Oct-18 15:00N 34°60' E 139°49'0 0.0
2017-Oct-18 14:00N 34°60' E 139°49'0 0.0
2017-Oct-18 13:30N 34°60' E 139°49'0 0.0
2017-Oct-18 13:00N 35°00' E 139°49'0 0.1
2017-Oct-18 12:30N 35°00' E 139°49'0 0.1
2017-Oct-18 12:00N 34°60' E 139°49'0 0.0
2017-Oct-18 11:29N 34°60' E 139°49'0 0.0
2017-Oct-18 11:00N 34°60' E 139°49'1 2.1
2017-Oct-18 10:30N 35°00' E 139°48'4 8.5
2017-Oct-18 10:00N 34°58' E 139°44'  
2017-Oct-13 23:13N 34°52' E 139°28'  
2017-Oct-11 00:00N 34°10' E 135°09'0 0.0
2017-Oct-10 23:30N 34°10' E 135°09'0 0.1
2017-Oct-10 23:00N 34°10' E 135°09'0 0.1
2017-Oct-10 22:31N 34°10' E 135°09'0 0.1
2017-Oct-10 22:00N 34°10' E 135°09'0 0.0
2017-Oct-10 21:30N 34°10' E 135°09'1 2.8
2017-Oct-10 21:00N 34°10' E 135°08'4 7.7
2017-Oct-10 20:30N 34°14' E 135°07'1 1.8
2017-Oct-10 20:01N 34°14' E 135°08'0 0.0
2017-Oct-10 19:30N 34°14' E 135°08'0 0.0
2017-Oct-10 19:00N 34°14' E 135°08'0 0.0
2017-Oct-10 18:31N 34°14' E 135°08'0 0.0
2017-Oct-10 18:00N 34°14' E 135°08'0 0.0
2017-Oct-10 17:30N 34°14' E 135°08'0 0.0
2017-Oct-10 17:00N 34°14' E 135°08'0 0.0
2017-Oct-10 16:31N 34°14' E 135°08'0 0.0
2017-Oct-10 16:00N 34°14' E 135°08'0 0.0
2017-Oct-10 15:30N 34°14' E 135°08'0 0.0
2017-Oct-10 15:01N 34°14' E 135°08'0 0.0
2017-Oct-10 14:00N 34°14' E 135°08'0 0.0
2017-Oct-10 13:31N 34°14' E 135°08'0 0.0
2017-Oct-10 13:01N 34°14' E 135°08'0 0.0
2017-Oct-10 12:31N 34°14' E 135°08'0 0.0
2017-Oct-10 12:01N 34°14' E 135°08'0 0.0
2017-Oct-10 11:31N 34°14' E 135°08'3 5.4
2017-Oct-10 11:01N 34°13' E 135°04'612.1
2017-Oct-10 10:30N 34°07' E 135°01'811.7
2017-Oct-10 09:52N 34°01' E 134°57'  
Track history (hours):
 
Tides and Currents Weather Stations Pressure Air Temp Water Temp Dewpoint Dewpoint Depression Visibility Wind Speed Wind Dir Waves Ship Positions

Shinkomaru No.18

Last reported at 2017-Oct-19 02:00 UTC. Time now 2017-Oct-19 02:13 UTC.
Position N 34°60' E 139°49'.

Length 82 m; draft 4.6 m.

Type: Cargo ship. MMSI: 431005083.

Date/timePositionNaut miles runAvg speedWind from/ knotsBaromVisibWave heightAir tempDewpointWater temp
2017-Oct-19 02:00N 34°60' E 139°49'0 0.1
2017-Oct-19 01:30N 34°60' E 139°49'0 0.0
2017-Oct-19 01:00N 34°60' E 139°49'0 0.1
2017-Oct-19 00:30N 34°60' E 139°49'0 0.1
2017-Oct-19 00:00N 34°60' E 139°49'0 0.0
2017-Oct-18 23:30N 34°60' E 139°49'0 0.0
2017-Oct-18 23:00N 34°60' E 139°49'0 0.0
2017-Oct-18 22:30N 34°60' E 139°49'0 0.0
2017-Oct-18 22:00N 34°60' E 139°49'0 0.0
2017-Oct-18 21:30N 34°60' E 139°49'0 0.0
2017-Oct-18 21:00N 34°60' E 139°49'0 0.0
2017-Oct-18 20:30N 34°60' E 139°49'0 0.0
2017-Oct-18 20:00N 34°60' E 139°49'0 0.0
2017-Oct-18 19:30N 34°60' E 139°49'0 0.1
2017-Oct-18 19:00N 34°60' E 139°49'0 0.1
2017-Oct-18 18:30N 34°60' E 139°49'0 0.0
2017-Oct-18 17:59N 34°60' E 139°49'0 0.1
2017-Oct-18 17:30N 34°60' E 139°49'0 0.0
2017-Oct-18 17:00N 34°60' E 139°49'0 0.0
2017-Oct-18 16:30N 34°60' E 139°49'0 0.0
2017-Oct-18 16:00N 34°60' E 139°49'0 0.0
2017-Oct-18 15:30N 34°60' E 139°49'0 0.0
2017-Oct-18 15:00N 34°60' E 139°49'0 0.0
2017-Oct-18 14:00N 34°60' E 139°49'0 0.0
2017-Oct-18 13:30N 34°60' E 139°49'0 0.0
2017-Oct-18 13:00N 35°00' E 139°49'0 0.1
2017-Oct-18 12:30N 35°00' E 139°49'0 0.1
2017-Oct-18 12:00N 34°60' E 139°49'0 0.0
2017-Oct-18 11:29N 34°60' E 139°49'0 0.0
2017-Oct-18 11:00N 34°60' E 139°49'1 2.1
2017-Oct-18 10:30N 35°00' E 139°48'4 8.5
2017-Oct-18 10:00N 34°58' E 139°44'  
2017-Oct-13 23:13N 34°52' E 139°28'  
2017-Oct-11 00:00N 34°10' E 135°09'0 0.0
2017-Oct-10 23:30N 34°10' E 135°09'0 0.1
2017-Oct-10 23:00N 34°10' E 135°09'0 0.1
2017-Oct-10 22:31N 34°10' E 135°09'0 0.1
2017-Oct-10 22:00N 34°10' E 135°09'0 0.0
2017-Oct-10 21:30N 34°10' E 135°09'1 2.8
2017-Oct-10 21:00N 34°10' E 135°08'4 7.7
2017-Oct-10 20:30N 34°14' E 135°07'1 1.8
2017-Oct-10 20:01N 34°14' E 135°08'0 0.0
2017-Oct-10 19:30N 34°14' E 135°08'0 0.0
2017-Oct-10 19:00N 34°14' E 135°08'0 0.0
2017-Oct-10 18:31N 34°14' E 135°08'0 0.0
2017-Oct-10 18:00N 34°14' E 135°08'0 0.0
2017-Oct-10 17:30N 34°14' E 135°08'0 0.0
2017-Oct-10 17:00N 34°14' E 135°08'0 0.0
2017-Oct-10 16:31N 34°14' E 135°08'0 0.0
2017-Oct-10 16:00N 34°14' E 135°08'0 0.0
2017-Oct-10 15:30N 34°14' E 135°08'0 0.0
2017-Oct-10 15:01N 34°14' E 135°08'0 0.0
2017-Oct-10 14:00N 34°14' E 135°08'0 0.0
2017-Oct-10 13:31N 34°14' E 135°08'0 0.0
2017-Oct-10 13:01N 34°14' E 135°08'0 0.0
2017-Oct-10 12:31N 34°14' E 135°08'0 0.0
2017-Oct-10 12:01N 34°14' E 135°08'0 0.0
2017-Oct-10 11:31N 34°14' E 135°08'3 5.4
2017-Oct-10 11:01N 34°13' E 135°04'612.1
2017-Oct-10 10:30N 34°07' E 135°01'811.7
2017-Oct-10 09:52N 34°01' E 134°57'  

Dump ship's entire track history